Time;durP1;ratioP1;P1;durP2;ratioP2;P2;SDS_P1;SDS_P2;PMS_P1;PMS_P2;Temp;Humidity;BMP_temperature;BMP_pressure;BME280_temperature;BME280_humidity;BME280_pressure;Samples;Min_cycle;Max_cycle;Signal;HPM_P1;HPM_P2
2021/12/16 08:15:44;;;;;;;;;15.67;15.00;;;;;11.03;57.07;103143.53;5065964;27;45781;-94
2021/12/16 08:18:10;;;;;;;;;12.33;10.00;;;;;11.42;56.89;103176.88;5046998;28;45564;-91
2021/12/16 08:20:36;;;;;;;;;13.33;11.00;;;;;11.61;55.66;103174.50;5030052;28;45503;-95
2021/12/16 08:23:01;;;;;;;;;10.67;9.67;;;;;11.65;55.26;103156.66;5025964;28;45447;-95
2021/12/16 08:25:30;;;;;;;;;12.33;10.00;;;;;11.85;54.73;103168.41;5014365;28;47696;-95
2021/12/16 08:27:58;;;;;;;;;9.67;9.67;;;;;12.07;55.20;103195.19;5030969;28;45382;-93
2021/12/16 08:31:26;;;;;;;;;;;;;;;;;;;;;
2021/12/16 08:35:06;;;;;;;;;;;;;;;;;;;;;
2021/12/16 08:38:36;;;;;;;;;;;;;;;;;;;;;
2021/12/16 08:56:17;;;;;;;;;13.00;11.33;;;;;13.10;53.01;103192.44;4764483;29;45559;-94
2021/12/16 09:02:05;;;;;;;;;10.00;8.50;;;;;13.32;52.35;103188.03;4763908;29;45547;-94
2021/12/16 09:05:09;;;;;;;;;;;;;;;;;;;;;
2021/12/16 09:07:55;;;;;;;;;11.33;10.67;;;;;13.52;52.11;103185.44;4762170;29;71277;-94
2021/12/16 09:10:30;;;;;;;;;12.67;12.33;;;;;13.67;51.47;103203.59;4743758;29;45596;-95
2021/12/16 09:13:12;;;;;;;;;11.50;10.00;;;;;13.77;51.20;103207.59;4764188;29;45401;-95
2021/12/16 09:16:02;;;;;;;;;13.33;13.33;;;;;13.87;51.29;103210.78;4753024;29;46965;-94
2021/12/16 09:18:29;;;;;;;;;9.00;7.75;;;;;13.92;52.14;103210.56;4762898;29;45416;-94
2021/12/16 09:20:55;;;;;;;;;12.25;9.75;;;;;13.97;49.80;103189.88;4769712;29;45352;-94
2021/12/16 09:23:21;;;;;;;;;7.50;7.00;;;;;14.17;50.32;103217.56;4771143;29;45475;-92
2021/12/16 09:25:50;;;;;;;;;11.75;11.00;;;;;14.43;50.00;103242.22;4806358;29;45703;-93
2021/12/16 09:28:20;;;;;;;;;11.50;9.50;;;;;14.24;50.36;103203.00;4883141;28;45646;-94
2021/12/16 09:30:55;;;;;;;;;7.00;7.00;;;;;14.57;50.21;103246.97;4951529;28;45363;-92
2021/12/16 09:33:22;;;;;;;;;9.25;9.25;;;;;14.34;50.10;103202.59;4999475;28;45621;-90
2021/12/16 09:35:50;;;;;;;;;12.75;12.00;;;;;14.67;49.88;103247.44;5002450;28;49519;-91
2021/12/16 09:38:15;;;;;;;;;8.00;7.75;;;;;14.60;49.83;103208.56;4998215;28;45488;-96
2021/12/16 09:40:52;;;;;;;;;9.00;7.25;;;;;14.92;48.99;103213.41;5003167;28;44818;-95
2021/12/16 09:43:19;;;;;;;;;9.25;9.00;;;;;15.16;48.29;103230.09;5008737;28;45589;-93
2021/12/16 09:45:45;;;;;;;;;10.75;10.75;;;;;15.38;48.08;103230.88;4998323;28;47082;-93
2021/12/16 09:48:10;;;;;;;;;13.75;12.25;;;;;15.34;47.12;103205.22;5011929;28;45474;-94
2021/12/16 09:50:36;;;;;;;;;11.00;11.00;;;;;15.44;46.50;103197.63;5003468;28;45417;-94
2021/12/16 09:53:01;;;;;;;;;14.00;14.00;;;;;15.63;46.45;103218.13;5003924;28;45426;-95
2021/12/16 09:55:27;;;;;;;;;11.50;10.00;;;;;15.50;46.24;103191.97;5018080;28;48170;-93
2021/12/16 09:58:36;;;;;;;;;11.75;11.00;;;;;15.48;46.71;103188.50;5002205;28;45571;-92
2021/12/16 10:04:49;;;;;;;;;13.25;12.25;;;;;15.67;46.89;103198.28;5007308;28;45533;-92
2021/12/16 10:07:23;;;;;;;;;9.75;9.75;;;;;15.88;46.36;103227.59;4967623;28;47771;-92
2021/12/16 10:09:59;;;;;;;;;9.20;7.80;;;;;15.91;47.14;103231.00;4993997;28;45931;-93
2021/12/16 10:12:35;;;;;;;;;6.00;6.00;;;;;15.80;46.58;103204.78;4979381;28;45524;-93
2021/12/16 10:15:08;;;;;;;;;9.50;8.00;;;;;15.91;46.76;103208.72;4975484;28;45541;-93
2021/12/16 10:21:44;;;;;;;;;14.00;9.75;;;;;16.08;46.83;103217.72;4936328;28;45566;-92
2021/12/16 10:24:26;;;;;;;;;10.00;10.00;;;;;16.12;46.41;103209.44;4916766;28;45396;-90
2021/12/16 10:27:13;;;;;;;;;10.00;9.00;;;;;16.36;46.83;103243.06;4925829;28;45345;-88
2021/12/16 10:29:40;;;;;;;;;8.50;8.50;;;;;16.30;46.24;103227.31;4914455;28;47550;-86
2021/12/16 10:32:06;;;;;;;;;8.50;7.25;;;;;16.33;46.16;103219.97;4925702;28;46996;-91
2021/12/16 10:34:32;;;;;;;;;9.50;7.75;;;;;16.41;45.95;103224.94;4889151;28;45594;-89
2021/12/16 10:36:59;;;;;;;;;11.75;8.00;;;;;16.56;46.03;103238.47;4918619;28;46758;-90
2021/12/16 10:39:28;;;;;;;;;11.00;9.50;;;;;16.46;45.81;103216.66;4907438;28;45997;-89
2021/12/16 10:42:07;;;;;;;;;6.40;6.00;;;;;16.55;46.20;103220.69;4931695;28;45401;-91
2021/12/16 10:44:35;;;;;;;;;10.75;10.25;;;;;16.55;45.62;103209.97;4915965;28;45591;-90
2021/12/16 10:47:06;;;;;;;;;8.50;7.50;;;;;16.56;45.88;103206.31;4938731;28;45470;-90
2021/12/16 10:49:33;;;;;;;;;10.75;8.50;;;;;16.83;45.87;103240.63;4941359;28;46100;-90
2021/12/16 10:52:01;;;;;;;;;7.60;7.40;;;;;16.61;45.27;103188.16;4951779;28;45724;-89
2021/12/16 10:54:30;;;;;;;;;8.40;7.80;;;;;16.88;45.34;103227.81;4953556;28;45749;-90
2021/12/16 10:57:08;;;;;;;;;7.50;6.50;;;;;16.90;45.76;103225.91;4971001;28;45453;-91
2021/12/16 10:59:34;;;;;;;;;10.00;10.00;;;;;16.96;45.43;103223.84;5033929;28;45539;-91
2021/12/16 11:02:05;;;;;;;;;5.75;5.00;;;;;16.95;45.77;103208.72;5031122;28;45566;-91
2021/12/16 11:04:44;;;;;;;;;11.00;9.50;;;;;17.00;45.49;103215.56;4997804;28;45323;-88
2021/12/16 11:07:25;;;;;;;;;9.00;7.50;;;;;16.95;45.21;103203.38;5017683;28;45451;-90
2021/12/16 11:10:01;;;;;;;;;9.25;9.25;;;;;17.04;45.13;103210.88;5028926;28;46580;-90
2021/12/16 11:12:34;;;;;;;;;10.20;9.60;;;;;17.04;45.04;103213.56;5009838;28;46140;-89
2021/12/16 11:15:18;;;;;;;;;12.50;11.50;;;;;16.89;45.09;103186.66;5031345;28;45389;-90
2021/12/16 11:18:05;;;;;;;;;15.25;14.00;;;;;17.05;44.98;103201.88;4993765;28;45356;-90
2021/12/16 11:20:33;;;;;;;;;12.75;12.75;;;;;17.05;44.89;103201.88;5030389;28;48097;-90
2021/12/16 11:23:26;;;;;;;;;9.20;9.20;;;;;16.93;44.68;103182.84;5035171;28;45491;-90
2021/12/16 11:26:07;;;;;;;;;8.25;8.25;;;;;17.03;44.87;103198.44;4913600;28;45538;-91
2021/12/16 11:28:35;;;;;;;;;21.00;17.50;;;;;16.78;44.63;103154.22;4915679;28;45567;-91
2021/12/16 11:31:25;;;;;;;;;15.25;14.50;;;;;16.97;44.69;103188.91;4920637;28;47917;-90
2021/12/16 11:33:57;;;;;;;;;34.50;27.75;;;;;16.99;44.82;103188.81;4923134;28;45910;-94
2021/12/16 11:36:25;;;;;;;;;11.00;9.00;;;;;16.93;44.81;103182.84;4939960;28;45538;-93
2021/12/16 11:39:02;;;;;;;;;11.00;9.50;;;;;16.97;45.03;103188.91;4914929;28;45522;-94
2021/12/16 11:41:35;;;;;;;;;7.75;6.25;;;;;16.96;45.27;103176.44;4940401;28;48324;-92
2021/12/16 11:44:18;;;;;;;;;8.80;8.80;;;;;17.06;44.93;103187.53;4955578;28;45417;-94
2021/12/16 11:46:58;;;;;;;;;8.00;8.00;;;;;17.04;44.86;103176.00;4924409;28;45675;-93
2021/12/16 11:49:23;;;;;;;;;6.50;6.50;;;;;17.05;44.80;103175.06;4955103;28;45456;-92
2021/12/16 11:51:51;;;;;;;;;22.25;21.75;;;;;17.02;44.67;103177.91;4938895;28;46186;-93
2021/12/16 11:54:38;;;;;;;;;15.25;15.00;;;;;16.92;44.82;103169.53;4944631;28;45420;-93
2021/12/16 11:57:24;;;;;;;;;17.50;16.00;;;;;16.97;44.81;103180.00;4934293;28;45364;-94
2021/12/16 12:00:01;;;;;;;;;10.25;9.25;;;;;16.88;45.27;103162.59;4931220;28;45946;-90
2021/12/16 12:02:35;;;;;;;;;12.00;9.00;;;;;16.85;45.20;103152.94;4963945;28;47235;-91
2021/12/16 12:05:20;;;;;;;;;13.00;9.75;;;;;16.62;45.15;103125.59;5009619;28;45909;-91
2021/12/16 12:08:04;;;;;;;;;12.00;12.00;;;;;16.75;44.99;103146.34;5008825;28;45429;-90
2021/12/16 12:10:36;;;;;;;;;11.25;11.25;;;;;16.77;45.14;103149.81;5013304;28;47200;-92
2021/12/16 12:13:06;;;;;;;;;15.75;14.25;;;;;16.71;45.04;103140.28;5027532;28;48053;-91
2021/12/16 12:15:32;;;;;;;;;5.80;5.40;;;;;16.72;45.05;103141.16;5022235;28;45633;-90
2021/12/16 12:17:57;;;;;;;;;15.50;15.50;;;;;16.79;45.70;103161.31;4994264;28;46916;-91
2021/12/16 12:20:31;;;;;;;;;12.00;11.00;;;;;16.72;45.44;103141.16;4999244;28;45801;-90
2021/12/16 12:22:57;;;;;;;;;11.00;11.00;;;;;16.76;45.59;103156.09;5008622;28;45642;-91
2021/12/16 12:25:23;;;;;;;;;12.25;12.25;;;;;16.53;45.47;103115.34;4992177;28;46621;-90
2021/12/16 12:27:48;;;;;;;;;17.00;16.00;;;;;16.73;45.72;103153.59;4993278;28;45715;-91
2021/12/16 12:30:14;;;;;;;;;20.50;20.50;;;;;16.42;46.09;103098.06;5021074;28;47995;-90
2021/12/16 12:32:41;;;;;;;;;20.25;19.00;;;;;16.62;46.13;103130.94;5004522;28;47881;-91
2021/12/16 12:35:10;;;;;;;;;24.00;22.75;;;;;16.71;46.09;103140.28;5007960;28;46062;-91
2021/12/16 12:37:37;;;;;;;;;19.50;15.75;;;;;16.69;46.05;103150.25;5024119;28;47111;-90
2021/12/16 12:40:21;;;;;;;;;18.25;16.75;;;;;16.67;46.57;103139.59;4988146;28;45575;-91
2021/12/16 12:42:47;;;;;;;;;16.25;15.75;;;;;16.53;46.13;103116.22;5022400;28;45647;-92
2021/12/16 12:45:14;;;;;;;;;14.25;14.25;;;;;16.51;46.14;103111.91;4988214;28;45476;-91
2021/12/16 12:47:42;;;;;;;;;14.75;14.00;;;;;16.47;46.63;103103.16;5021958;28;45568;-91
2021/12/16 12:50:13;;;;;;;;;14.50;14.50;;;;;16.51;46.76;103101.19;4991045;28;45532;-92
2021/12/16 12:52:39;;;;;;;;;17.25;15.75;;;;;16.37;46.35;103089.44;5021763;28;46453;-91
2021/12/16 12:55:11;;;;;;;;;14.25;14.25;;;;;16.36;46.53;103093.03;4992436;28;45914;-91
2021/12/16 12:57:37;;;;;;;;;15.00;13.00;;;;;16.34;46.18;103090.47;4993127;28;46917;-90
2021/12/16 13:00:05;;;;;;;;;14.00;13.00;;;;;16.25;46.53;103081.13;4986985;28;45650;-92
2021/12/16 13:02:34;;;;;;;;;15.75;14.75;;;;;16.37;46.42;103094.78;4996649;28;47519;-91
2021/12/16 13:05:03;;;;;;;;;11.25;11.25;;;;;16.46;46.69;103104.13;5009139;28;45596;-91
2021/12/16 13:07:36;;;;;;;;;15.50;13.75;;;;;16.38;46.69;103096.50;5028800;28;45433;-91
2021/12/16 13:10:15;;;;;;;;;14.00;12.00;;;;;16.33;46.51;103082.50;5026447;28;47068;-91
2021/12/16 13:12:47;;;;;;;;;14.00;13.75;;;;;16.35;46.61;103081.47;5012526;28;47412;-91
2021/12/16 13:15:24;;;;;;;;;12.25;12.00;;;;;16.25;46.50;103059.69;5015794;28;45500;-91
2021/12/16 13:27:06;;;;;;;;;12.25;9.25;;;;;16.41;46.63;103085.63;4978785;28;45767;-87
2021/12/16 13:29:39;;;;;;;;;12.50;11.25;;;;;16.21;46.62;103051.88;4963674;28;45604;-86
2021/12/16 13:32:12;;;;;;;;;11.25;9.00;;;;;16.44;46.75;103093.47;4947586;28;45824;-87
2021/12/16 13:34:58;;;;;;;;;14.50;14.50;;;;;16.50;47.07;103103.00;4955380;28;45750;-87
2021/12/16 13:37:40;;;;;;;;;15.75;12.75;;;;;16.11;46.80;103039.00;4991251;28;45905;-95
2021/12/16 13:43:00;;;;;;;;;12.50;12.50;;;;;16.15;46.90;103047.72;5044298;23;44971;-96
2021/12/16 13:45:46;;;;;;;;;11.00;11.00;;;;;16.09;47.13;103042.72;5033317;28;47277;-96
2021/12/16 13:48:43;;;;;;;;;13.00;11.50;;;;;16.44;47.03;103104.19;5057949;28;44865;-96
2021/12/16 15:07:41;;;;;;;;;9.75;9.75;;;;;16.39;47.64;103060.72;5982495;23;46465;-96
2021/12/16 15:10:16;;;;;;;;;12.75;11.00;;;;;16.39;47.76;103063.41;4939672;28;44857;-96
2021/12/16 15:15:28;;;;;;;;;13.20;11.80;;;;;16.60;47.88;103098.00;5101749;23;46390;-96
2021/12/16 16:27:30;;;;;;;;;12.25;11.25;;;;;15.98;47.71;103088.78;5010766;23;44867;-96
2021/12/16 16:38:30;;;;;;;;;12.50;9.75;;;;;16.20;47.56;103125.16;5704088;23;46324;-96
2021/12/16 16:41:01;;;;;;;;;12.75;11.25;;;;;16.21;47.83;103132.22;4973728;28;45571;-96
2021/12/16 16:43:44;;;;;;;;;7.75;7.75;;;;;16.08;47.75;103118.63;5122895;22;45739;-96
2021/12/16 16:47:03;;;;;;;;;9.50;9.50;;;;;16.01;47.68;103100.19;5111549;23;44804;-96
2021/12/16 16:49:57;;;;;;;;;11.25;10.00;;;;;16.01;47.77;103104.66;4982498;28;44892;-96
2021/12/16 16:55:36;;;;;;;;;13.25;13.25;;;;;15.87;47.74;103090.19;5972666;23;46768;-96
2021/12/16 16:58:09;;;;;;;;;11.25;9.75;;;;;15.85;47.70;103073.38;4966606;28;44846;-96
2021/12/16 17:03:33;;;;;;;;;13.50;10.50;;;;;15.86;47.53;103085.81;5024504;23;45326;-96
2021/12/16 17:08:37;;;;;;;;;12.25;11.25;;;;;15.82;47.71;103085.09;5280128;23;45855;-96
2021/12/16 17:11:06;;;;;;;;;10.75;10.50;;;;;16.13;47.54;103133.50;4935705;28;44713;-96
2021/12/16 17:21:35;;;;;;;;;8.25;8.25;;;;;15.88;47.54;103096.44;4970795;28;44947;-96
2021/12/16 17:24:13;;;;;;;;;11.50;9.25;;;;;16.10;47.53;103132.81;4913209;28;44858;-96
2021/12/16 17:26:41;;;;;;;;;10.25;9.50;;;;;16.08;47.60;103137.38;4967346;28;45637;-96
2021/12/16 17:29:22;;;;;;;;;12.75;12.50;;;;;15.83;47.86;103102.88;4944200;28;44853;-96
2021/12/16 17:32:35;;;;;;;;;10.00;8.00;;;;;16.04;47.68;103134.84;4936926;28;44802;-96
2021/12/16 17:59:07;;;;;;;;;12.00;12.00;;;;;15.55;47.92;103071.31;5710422;23;46265;-96
2021/12/16 18:09:44;;;;;;;;;19.00;16.75;;;;;15.85;47.65;103136.75;5724082;23;46077;-96
2021/12/16 18:12:18;;;;;;;;;18.00;15.50;;;;;15.78;47.65;103126.34;5315102;23;44853;-96
2021/12/16 18:22:46;;;;;;;;;12.00;12.00;;;;;15.43;47.76;103083.53;5146334;23;45810;-96
2021/12/16 19:12:47;;;;;;;;;24.00;23.67;;;;;16.68;45.29;103116.34;5813397;23;46536;-96
2021/12/16 19:51:29;;;;;;;;;21.33;21.33;;;;;15.61;46.17;103058.50;4960665;28;45953;-96
2021/12/16 19:53:55;;;;;;;;;16.25;15.50;;;;;15.49;46.39;103051.13;4964756;28;46620;-96
2021/12/16 19:56:23;;;;;;;;;16.25;16.00;;;;;15.70;46.16;103097.31;4931359;28;44728;-96
2021/12/16 19:58:51;;;;;;;;;16.00;15.75;;;;;15.54;46.35;103075.84;4883053;29;44875;-96
2021/12/16 20:01:20;;;;;;;;;23.67;20.67;;;;;15.54;46.03;103086.53;4899002;29;45435;-94
